KFSD/FSD METAR and TAF weather

Enter ICAO airport designator
Station Type Date Time Source
KFSD METAR 2019/04/19 09:56 UTC NOAA

KFSD 190956Z 00000KT 10SM CLR 00/M01 A3007 RMK AO2 SLP191 T00001006


Station Type Date Time Source
KFSD Decoded METAR 2019/04/19 09:56 UTC NOAA

SIOUX FALLS FOSS FIELD, SD, United States (KFSD) 43-35N 096-45W 434M
Apr 19, 2019 - 05:56 AM EDT / 2019.04.19 0956 UTC
Wind: Calm:0
Visibility: 10 mile(s):0
Sky conditions: clear
Temperature: 32.0 F (0.0 C)
Dew Point: 30.9 F (-0.6 C)
Relative Humidity: 95%
Pressure (altimeter): 30.07 in. Hg (1018 hPa)
ob: KFSD 190956Z 00000KT 10SM CLR 00/M01 A3007 RMK AO2 SLP191 T00001006
cycle: 10

Station Type Date Time Source
KFSD TAF 2019/04/19 06:36 UTC NOAA

TAF KFSD 190532Z 1906/2006 33005KT P6SM SKC
FM191800 28005KT P6SM SKC
FM192100 25006KT P6SM SKC
FM192300 22006KT P6SM FEW250
FM200200 17005KT P6SM SKC

Example: see airport list